Time;durP1;ratioP1;P1;durP2;ratioP2;P2;SDS_P1;SDS_P2;PMS_P1;PMS_P2;Temp;Humidity;BMP_temperature;BMP_pressure;BME280_temperature;BME280_humidity;BME280_pressure;Samples;Min_cycle;Max_cycle;Signal;HPM_P1;HPM_P2
2022/04/20 00:00:35;;;;;;;5.38;3.20;;;;;;;;;;5031683;28;20046;-72
2022/04/20 00:03:02;;;;;;;4.13;2.15;;;;;;;;;;5031730;28;20096;-70
2022/04/20 00:05:33;;;;;;;4.40;2.78;;;;;;;;;;5031633;28;20059;-71
2022/04/20 00:08:00;;;;;;;3.67;2.83;;;;;;;;;;5031762;28;20045;-71
2022/04/20 00:10:28;;;;;;;2.63;2.00;;;;;;;;;;5031823;28;20053;-71
2022/04/20 00:12:55;;;;;;;4.93;2.70;;;;;;;;;;5031434;28;20053;-70
2022/04/20 00:15:21;;;;;;;2.88;2.22;;;;;;;;;;5031787;28;20057;-70
2022/04/20 00:17:48;;;;;;;4.82;2.28;;;;;;;;;;5031798;28;20050;-71
2022/04/20 00:20:15;;;;;;;3.20;2.42;;;;;;;;;;5031353;28;20046;-70
2022/04/20 00:22:41;;;;;;;4.50;2.63;;;;;;;;;;5031637;28;20111;-70
2022/04/20 00:25:08;;;;;;;5.18;3.05;;;;;;;;;;5035222;28;20120;-70
2022/04/20 00:27:35;;;;;;;4.25;2.75;;;;;;;;;;5035671;28;20049;-70
2022/04/20 00:30:04;;;;;;;3.58;2.65;;;;;;;;;;5035553;28;20111;-70
2022/04/20 00:32:30;;;;;;;3.42;2.50;;;;;;;;;;5035049;28;20057;-71
2022/04/20 00:34:57;;;;;;;3.80;3.05;;;;;;;;;;5035434;28;20049;-71
2022/04/20 00:37:24;;;;;;;5.03;2.97;;;;;;;;;;5035450;28;20519;-71
2022/04/20 00:39:51;;;;;;;6.63;3.30;;;;;;;;;;5035349;28;20079;-70
2022/04/20 00:42:19;;;;;;;3.15;2.65;;;;;;;;;;5033848;28;20048;-70
2022/04/20 00:44:46;;;;;;;5.20;2.75;;;;;;;;;;5035132;28;20077;-71
2022/04/20 00:47:13;;;;;;;6.00;2.90;;;;;;;;;;5035083;28;20052;-71
2022/04/20 00:49:39;;;;;;;3.28;2.92;;;;;;;;;;5017759;28;20050;-71
2022/04/20 00:52:06;;;;;;;3.35;2.97;;;;;;;;;;5033519;28;20053;-70
2022/04/20 00:54:33;;;;;;;5.30;2.88;;;;;;;;;;5035057;28;20443;-70
2022/04/20 00:57:00;;;;;;;4.93;3.13;;;;;;;;;;5033837;28;20045;-70
2022/04/20 00:59:27;;;;;;;5.40;3.50;;;;;;;;;;5034938;28;20075;-71
2022/04/20 01:01:54;;;;;;;3.95;3.10;;;;;;;;;;5033731;28;20054;-71
2022/04/20 01:04:21;;;;;;;4.57;3.50;;;;;;;;;;5034942;28;20131;-70
2022/04/20 01:06:49;;;;;;;4.78;3.25;;;;;;;;;;5034933;28;20046;-70
2022/04/20 01:09:16;;;;;;;5.95;3.33;;;;;;;;;;5034717;28;20057;-71
2022/04/20 01:11:43;;;;;;;6.57;3.83;;;;;;;;;;5034484;28;20488;-70
2022/04/20 01:14:10;;;;;;;5.07;3.78;;;;;;;;;;5034698;28;20049;-70
2022/04/20 01:16:36;;;;;;;5.03;3.47;;;;;;;;;;5034834;28;20049;-71
2022/04/20 01:19:03;;;;;;;4.07;3.38;;;;;;;;;;5034728;28;20124;-70
2022/04/20 01:21:30;;;;;;;4.75;3.42;;;;;;;;;;5034192;28;20041;-70
2022/04/20 01:23:56;;;;;;;3.72;3.33;;;;;;;;;;5034358;28;20566;-71
2022/04/20 01:26:23;;;;;;;3.80;3.10;;;;;;;;;;5034500;28;20416;-70
2022/04/20 01:28:54;;;;;;;5.65;3.25;;;;;;;;;;5034326;28;20053;-70
2022/04/20 01:31:21;;;;;;;4.90;3.53;;;;;;;;;;5016926;28;20045;-71
2022/04/20 01:33:47;;;;;;;5.22;3.47;;;;;;;;;;5033746;28;20049;-71
2022/04/20 01:36:14;;;;;;;5.68;3.90;;;;;;;;;;5034127;28;20049;-70
2022/04/20 01:38:40;;;;;;;6.55;3.80;;;;;;;;;;5034115;28;20057;-70
2022/04/20 01:41:07;;;;;;;4.57;3.80;;;;;;;;;;5033936;28;20057;-70
2022/04/20 01:43:34;;;;;;;4.60;4.00;;;;;;;;;;5034001;28;20073;-70
2022/04/20 01:46:00;;;;;;;5.63;3.60;;;;;;;;;;5034444;28;20057;-71
2022/04/20 01:48:27;;;;;;;5.60;3.78;;;;;;;;;;5034261;28;20096;-71
2022/04/20 01:53:38;;;;;;;6.70;3.50;;;;;;;;;;5034360;28;20050;-71
2022/04/20 01:56:06;;;;;;;4.57;3.47;;;;;;;;;;5033805;28;20085;-71
2022/04/20 01:58:34;;;;;;;4.57;3.33;;;;;;;;;;5034030;28;20419;-71
2022/04/20 02:02:34;;;;;;;5.05;4.18;;;;;;;;;;5034191;28;20041;-70
2022/04/20 02:03:48;;;;;;;5.85;3.58;;;;;;;;;;5034412;28;20049;-70
2022/04/20 02:06:17;;;;;;;6.70;4.00;;;;;;;;;;5033951;28;20450;-71
2022/04/20 02:08:44;;;;;;;4.18;3.78;;;;;;;;;;5034501;28;20050;-71
2022/04/20 02:11:10;;;;;;;4.72;3.50;;;;;;;;;;5033834;28;20049;-71
2022/04/20 02:13:37;;;;;;;3.85;3.45;;;;;;;;;;5033947;28;20060;-70
2022/04/20 02:16:04;;;;;;;5.80;4.07;;;;;;;;;;5033582;28;20072;-70
2022/04/20 02:18:31;;;;;;;5.80;3.70;;;;;;;;;;5033724;28;20053;-70
2022/04/20 02:20:58;;;;;;;5.00;3.58;;;;;;;;;;5032938;28;20049;-70
2022/04/20 02:23:26;;;;;;;5.10;3.53;;;;;;;;;;5033632;28;20099;-70
2022/04/20 02:25:53;;;;;;;4.75;3.55;;;;;;;;;;5033458;28;20053;-71
2022/04/20 02:28:20;;;;;;;4.00;3.60;;;;;;;;;;5033454;28;20076;-71
2022/04/20 02:30:47;;;;;;;6.22;4.32;;;;;;;;;;5032931;28;20443;-71
2022/04/20 02:33:14;;;;;;;5.15;3.63;;;;;;;;;;5033105;28;20049;-71
2022/04/20 02:35:40;;;;;;;4.65;3.90;;;;;;;;;;5033286;28;20679;-70
2022/04/20 02:38:10;;;;;;;4.70;3.33;;;;;;;;;;5033135;28;20088;-70
2022/04/20 02:40:39;;;;;;;4.72;3.60;;;;;;;;;;5033134;28;20103;-70
2022/04/20 02:43:06;;;;;;;4.07;3.67;;;;;;;;;;5031737;28;20076;-70
2022/04/20 02:45:33;;;;;;;4.95;3.53;;;;;;;;;;5031454;28;20053;-71
2022/04/20 02:48:01;;;;;;;5.60;3.53;;;;;;;;;;5032398;28;20203;-70
2022/04/20 02:50:28;;;;;;;4.72;4.10;;;;;;;;;;5032869;28;20053;-71
2022/04/20 02:52:55;;;;;;;7.07;4.45;;;;;;;;;;5031448;28;20042;-71
2022/04/20 02:55:22;;;;;;;5.82;3.80;;;;;;;;;;5032883;28;20436;-70
2022/04/20 02:57:49;;;;;;;4.43;4.00;;;;;;;;;;5032753;28;20459;-70
2022/04/20 03:00:16;;;;;;;6.50;3.70;;;;;;;;;;5032638;28;20510;-71
2022/04/20 03:02:43;;;;;;;3.53;3.22;;;;;;;;;;5032172;28;20100;-70
2022/04/20 03:05:09;;;;;;;5.00;3.33;;;;;;;;;;5031610;28;20087;-70
2022/04/20 03:07:36;;;;;;;4.70;4.03;;;;;;;;;;5050800;28;20029;-70
2022/04/20 03:10:03;;;;;;;6.03;3.65;;;;;;;;;;5042819;28;20099;-71
2022/04/20 03:12:29;;;;;;;5.63;3.92;;;;;;;;;;5033023;28;20045;-70
2022/04/20 03:14:57;;;;;;;5.72;3.42;;;;;;;;;;5032961;28;20092;-70
2022/04/20 03:17:24;;;;;;;5.78;3.88;;;;;;;;;;5032460;28;20566;-70
2022/04/20 03:19:51;;;;;;;4.70;3.80;;;;;;;;;;5032131;28;20493;-70
2022/04/20 03:22:18;;;;;;;5.55;4.32;;;;;;;;;;5032303;28;20049;-70
2022/04/20 03:24:44;;;;;;;5.53;3.97;;;;;;;;;;5032233;28;20057;-70
2022/04/20 03:27:11;;;;;;;5.90;3.70;;;;;;;;;;5032353;28;20057;-70
2022/04/20 03:29:38;;;;;;;5.70;4.05;;;;;;;;;;5032236;28;20099;-70
2022/04/20 03:32:12;;;;;;;5.20;4.18;;;;;;;;;;5032101;28;20052;-70
2022/04/20 03:34:39;;;;;;;4.93;3.90;;;;;;;;;;5032341;28;20049;-70
2022/04/20 03:37:06;;;;;;;6.40;3.92;;;;;;;;;;5014828;28;20062;-71
2022/04/20 03:39:36;;;;;;;7.00;3.72;;;;;;;;;;5032120;28;20104;-71
2022/04/20 03:42:04;;;;;;;5.28;4.13;;;;;;;;;;5031804;28;20057;-70
2022/04/20 03:44:31;;;;;;;7.38;4.00;;;;;;;;;;5032144;28;20049;-71
2022/04/20 03:46:58;;;;;;;4.90;3.97;;;;;;;;;;5032162;28;20049;-70
2022/04/20 03:49:24;;;;;;;4.90;4.25;;;;;;;;;;5031994;28;20053;-70
2022/04/20 03:51:51;;;;;;;4.40;3.80;;;;;;;;;;5031976;28;20495;-70
2022/04/20 03:54:18;;;;;;;5.38;3.85;;;;;;;;;;5031920;28;20492;-70
2022/04/20 03:59:34;;;;;;;6.70;4.53;;;;;;;;;;5031572;28;20060;-70
2022/04/20 04:02:00;;;;;;;6.18;5.10;;;;;;;;;;5031735;28;20045;-71
2022/04/20 04:04:27;;;;;;;5.78;4.60;;;;;;;;;;5031775;28;20443;-70
2022/04/20 04:06:54;;;;;;;5.32;4.18;;;;;;;;;;5032045;28;20049;-70
2022/04/20 04:09:21;;;;;;;7.57;4.88;;;;;;;;;;5031522;28;20053;-70
2022/04/20 04:11:47;;;;;;;5.10;3.90;;;;;;;;;;5031617;28;20115;-70
2022/04/20 04:14:14;;;;;;;5.47;4.50;;;;;;;;;;5031735;28;20482;-70
2022/04/20 04:16:41;;;;;;;6.55;4.55;;;;;;;;;;5031707;28;20064;-70
2022/04/20 04:19:08;;;;;;;4.63;4.03;;;;;;;;;;5031509;28;20515;-70
2022/04/20 04:21:39;;;;;;;5.35;4.47;;;;;;;;;;5031299;28;20057;-71
2022/04/20 04:24:07;;;;;;;5.93;4.93;;;;;;;;;;5031696;28;20115;-70
2022/04/20 04:26:34;;;;;;;5.22;4.70;;;;;;;;;;5031629;28;20053;-70
2022/04/20 04:29:01;;;;;;;5.22;4.72;;;;;;;;;;5030532;28;20119;-76
2022/04/20 04:31:28;;;;;;;5.57;5.00;;;;;;;;;;5029793;28;20685;-71
2022/04/20 04:33:54;;;;;;;4.93;4.47;;;;;;;;;;5031278;28;20053;-71
2022/04/20 04:36:21;;;;;;;5.43;4.60;;;;;;;;;;5031520;28;20049;-71
2022/04/20 04:38:48;;;;;;;7.07;4.80;;;;;;;;;;5030254;28;20132;-71
2022/04/20 04:41:15;;;;;;;6.53;5.35;;;;;;;;;;5030875;28;20041;-71
2022/04/20 04:43:42;;;;;;;5.38;4.57;;;;;;;;;;5031026;28;20055;-71
2022/04/20 04:48:54;;;;;;;5.57;4.43;;;;;;;;;;5030189;28;20041;-71
2022/04/20 04:51:20;;;;;;;6.70;4.50;;;;;;;;;;5028299;28;20053;-71
2022/04/20 04:53:47;;;;;;;7.05;4.97;;;;;;;;;;5031306;28;20412;-71
2022/04/20 04:56:14;;;;;;;6.65;4.70;;;;;;;;;;5031836;28;20487;-71
2022/04/20 04:58:40;;;;;;;6.38;5.10;;;;;;;;;;5031573;28;20111;-71
2022/04/20 05:01:07;;;;;;;8.50;4.85;;;;;;;;;;5031038;28;20053;-71
2022/04/20 05:03:33;;;;;;;5.60;5.00;;;;;;;;;;5030535;28;20492;-71
2022/04/20 05:06:02;;;;;;;5.95;4.68;;;;;;;;;;5029677;28;20099;-71
2022/04/20 05:08:28;;;;;;;5.75;4.90;;;;;;;;;;5028534;28;20060;-71
2022/04/20 05:10:55;;;;;;;8.98;4.72;;;;;;;;;;5033744;28;20057;-72
2022/04/20 05:13:22;;;;;;;7.03;5.00;;;;;;;;;;5033421;28;20504;-72
2022/04/20 05:15:48;;;;;;;5.45;4.95;;;;;;;;;;5033631;28;20056;-72
2022/04/20 05:18:15;;;;;;;5.38;4.88;;;;;;;;;;5035224;28;20060;-71
2022/04/20 05:20:42;;;;;;;7.15;4.53;;;;;;;;;;5040578;22;20108;-66
2022/04/20 05:23:08;;;;;;;7.75;5.07;;;;;;;;;;5014534;28;20411;-66
2022/04/20 05:25:35;;;;;;;5.75;4.47;;;;;;;;;;5030214;28;20054;-66
2022/04/20 05:28:06;;;;;;;7.43;4.57;;;;;;;;;;5029416;28;20132;-66
2022/04/20 05:30:33;;;;;;;6.20;4.35;;;;;;;;;;5013320;28;20504;-65
2022/04/20 05:32:59;;;;;;;10.63;5.63;;;;;;;;;;4997178;28;20057;-66
2022/04/20 05:35:26;;;;;;;8.18;5.60;;;;;;;;;;5014660;28;20554;-66
2022/04/20 05:43:23;;;;;;;5.55;4.50;;;;;;;;;;5013227;28;20397;-66
2022/04/20 05:45:51;;;;;;;6.82;4.60;;;;;;;;;;5013351;28;20476;-65
2022/04/20 05:48:23;;;;;;;7.82;4.63;;;;;;;;;;5013284;28;20471;-66
2022/04/20 05:50:50;;;;;;;7.35;4.93;;;;;;;;;;5011374;28;20042;-66
2022/04/20 05:53:16;;;;;;;5.18;4.25;;;;;;;;;;4994831;28;20054;-65
2022/04/20 05:55:43;;;;;;;5.28;4.57;;;;;;;;;;5010856;28;20046;-65
2022/04/20 05:58:10;;;;;;;5.43;3.92;;;;;;;;;;5011920;28;20057;-65
2022/04/20 06:00:37;;;;;;;5.00;4.25;;;;;;;;;;5011426;28;20053;-65
2022/04/20 06:03:04;;;;;;;5.07;4.57;;;;;;;;;;5009722;28;20050;-65
2022/04/20 06:05:30;;;;;;;5.75;4.80;;;;;;;;;;5012133;28;20100;-65
2022/04/20 06:07:57;;;;;;;5.88;4.18;;;;;;;;;;5011836;28;20060;-65
2022/04/20 06:10:23;;;;;;;6.72;5.03;;;;;;;;;;5012054;28;20057;-65
2022/04/20 06:12:50;;;;;;;6.45;4.60;;;;;;;;;;5011825;28;20054;-65
2022/04/20 06:15:17;;;;;;;4.95;4.30;;;;;;;;;;5011338;28;20053;-65
2022/04/20 06:17:44;;;;;;;6.60;4.03;;;;;;;;;;4994666;28;20081;-65
2022/04/20 06:20:11;;;;;;;6.30;4.65;;;;;;;;;;5011621;28;20042;-65
2022/04/20 06:22:37;;;;;;;4.70;4.18;;;;;;;;;;5010362;28;20519;-65
2022/04/20 06:25:04;;;;;;;11.75;4.22;;;;;;;;;;5012140;28;20053;-65
2022/04/20 06:27:31;;;;;;;8.90;4.18;;;;;;;;;;5010861;28;20448;-65
2022/04/20 06:29:58;;;;;;;7.20;4.72;;;;;;;;;;5010041;28;20050;-66
2022/04/20 06:32:27;;;;;;;6.43;4.75;;;;;;;;;;5010129;28;20050;-65
2022/04/20 06:34:57;;;;;;;4.57;4.15;;;;;;;;;;5011844;28;20046;-66
2022/04/20 06:37:24;;;;;;;7.47;4.22;;;;;;;;;;5010345;28;20054;-66
2022/04/20 06:39:51;;;;;;;6.97;3.75;;;;;;;;;;5009975;28;20069;-66
2022/04/20 06:42:20;;;;;;;4.38;3.60;;;;;;;;;;5009188;28;20100;-66
2022/04/20 06:44:47;;;;;;;4.57;4.13;;;;;;;;;;5011529;28;20045;-66
2022/04/20 06:47:14;;;;;;;4.68;4.28;;;;;;;;;;4994138;28;20049;-65
2022/04/20 06:49:42;;;;;;;5.97;4.15;;;;;;;;;;5010075;28;20053;-65
2022/04/20 07:00:25;;;;;;;5.18;3.78;;;;;;;;;;5010394;28;20061;-65
2022/04/20 07:03:00;;;;;;;5.40;3.83;;;;;;;;;;5011058;28;20386;-66
2022/04/20 07:05:26;;;;;;;5.38;3.70;;;;;;;;;;4993937;28;20137;-67
2022/04/20 07:08:00;;;;;;;4.13;3.72;;;;;;;;;;4994162;28;20579;-66
2022/04/20 07:10:27;;;;;;;5.82;4.20;;;;;;;;;;5009670;28;20061;-66
2022/04/20 07:12:54;;;;;;;5.22;3.92;;;;;;;;;;5009860;28;20049;-65
2022/04/20 07:15:21;;;;;;;5.53;3.83;;;;;;;;;;5009750;28;20045;-69
2022/04/20 07:17:47;;;;;;;4.43;3.83;;;;;;;;;;5010905;28;20112;-64
2022/04/20 07:20:17;;;;;;;5.32;3.97;;;;;;;;;;4995086;28;20401;-67
2022/04/20 07:22:48;;;;;;;7.22;4.18;;;;;;;;;;4996666;28;20042;-67
2022/04/20 07:25:16;;;;;;;4.10;3.58;;;;;;;;;;4999318;28;20053;-69
2022/04/20 07:27:47;;;;;;;4.45;4.03;;;;;;;;;;4983612;28;20046;-70
2022/04/20 07:30:14;;;;;;;6.20;3.88;;;;;;;;;;4979399;28;20050;-69
2022/04/20 07:32:40;;;;;;;4.57;3.58;;;;;;;;;;4998000;28;20046;-69
2022/04/20 07:35:08;;;;;;;3.90;3.00;;;;;;;;;;4996792;28;20420;-68
2022/04/20 07:37:34;;;;;;;5.45;3.38;;;;;;;;;;4967207;28;20406;-66
2022/04/20 07:40:01;;;;;;;5.70;3.25;;;;;;;;;;5000757;28;20428;-71
2022/04/20 07:42:28;;;;;;;4.30;3.58;;;;;;;;;;4996830;28;20049;-71
2022/04/20 07:44:56;;;;;;;3.25;2.95;;;;;;;;;;4981940;28;20397;-70
2022/04/20 07:47:25;;;;;;;5.45;2.90;;;;;;;;;;4996438;28;20054;-72
2022/04/20 07:52:39;;;;;;;5.43;3.20;;;;;;;;;;4992225;28;20112;-70
2022/04/20 07:55:10;;;;;;;3.50;2.95;;;;;;;;;;4996785;28;20137;-69
2022/04/20 07:57:37;;;;;;;4.35;3.10;;;;;;;;;;4999840;28;20480;-69
2022/04/20 08:00:05;;;;;;;4.60;3.25;;;;;;;;;;4999234;28;20078;-68
2022/04/20 08:02:33;;;;;;;3.42;3.13;;;;;;;;;;5004320;28;20052;-69
2022/04/20 08:05:00;;;;;;;3.53;2.80;;;;;;;;;;4992289;28;20104;-69
2022/04/20 08:07:28;;;;;;;3.35;3.05;;;;;;;;;;4993710;28;20134;-67
2022/04/20 08:09:56;;;;;;;3.35;2.90;;;;;;;;;;5002734;28;20104;-67
2022/04/20 08:12:24;;;;;;;3.30;3.00;;;;;;;;;;4981064;28;20517;-69
2022/04/20 08:14:51;;;;;;;4.40;3.30;;;;;;;;;;4997645;28;20061;-71
2022/04/20 08:17:18;;;;;;;5.70;3.17;;;;;;;;;;4999562;28;20101;-70
2022/04/20 08:19:45;;;;;;;4.07;3.40;;;;;;;;;;4997695;28;20061;-69
2022/04/20 08:22:14;;;;;;;3.53;2.72;;;;;;;;;;4982027;28;20057;-70
2022/04/20 08:24:45;;;;;;;3.63;2.83;;;;;;;;;;4981296;28;20057;-68
2022/04/20 08:27:14;;;;;;;3.33;2.90;;;;;;;;;;4985316;28;20045;-67
2022/04/20 08:29:42;;;;;;;3.50;3.20;;;;;;;;;;4975910;28;20050;-68
2022/04/20 08:32:09;;;;;;;3.95;3.30;;;;;;;;;;5000120;28;20054;-68
2022/04/20 08:34:37;;;;;;;3.15;2.85;;;;;;;;;;4997266;28;20128;-70
2022/04/20 08:37:23;;;;;;;2.97;2.55;;;;;;;;;;4997680;28;20512;-68
2022/04/20 08:39:50;;;;;;;4.32;2.67;;;;;;;;;;4997462;28;20061;-68
2022/04/20 08:42:19;;;;;;;4.88;2.85;;;;;;;;;;4999042;28;20084;-70
2022/04/20 08:44:51;;;;;;;7.32;2.80;;;;;;;;;;4982497;28;20145;-70
2022/04/20 08:47:22;;;;;;;3.25;2.95;;;;;;;;;;4984254;28;20050;-70
2022/04/20 08:49:49;;;;;;;3.45;3.15;;;;;;;;;;4989350;28;20456;-69
2022/04/20 08:55:15;;;;;;;3.10;2.78;;;;;;;;;;5003090;28;20564;-68
2022/04/20 08:57:46;;;;;;;2.97;2.67;;;;;;;;;;5010591;28;20064;-65
2022/04/20 09:00:17;;;;;;;3.40;2.85;;;;;;;;;;4960601;28;20054;-67
2022/04/20 09:02:44;;;;;;;3.63;3.33;;;;;;;;;;5003543;28;20077;-67
2022/04/20 09:05:11;;;;;;;2.70;2.50;;;;;;;;;;4943621;28;20111;-69
2022/04/20 09:07:43;;;;;;;4.25;3.05;;;;;;;;;;5004363;28;20477;-67
2022/04/20 09:10:10;;;;;;;3.80;3.00;;;;;;;;;;4994039;28;20412;-66
2022/04/20 09:12:42;;;;;;;2.72;2.30;;;;;;;;;;4977374;28;20050;-71
2022/04/20 09:15:11;;;;;;;4.70;2.67;;;;;;;;;;4995926;28;20096;-68
2022/04/20 09:17:45;;;;;;;2.95;2.67;;;;;;;;;;4985050;28;20811;-68
2022/04/20 09:20:18;;;;;;;2.90;2.60;;;;;;;;;;4998827;28;20497;-68
2022/04/20 09:23:04;;;;;;;3.60;2.97;;;;;;;;;;4965699;28;20057;-67
2022/04/20 09:25:32;;;;;;;3.55;3.10;;;;;;;;;;5002069;28;20126;-69
2022/04/20 09:27:59;;;;;;;4.32;2.78;;;;;;;;;;4999660;28;20050;-68
2022/04/20 09:30:26;;;;;;;3.17;2.63;;;;;;;;;;5003017;28;20046;-70
2022/04/20 09:32:53;;;;;;;3.35;2.80;;;;;;;;;;4982175;28;20121;-69
2022/04/20 09:35:20;;;;;;;3.40;2.78;;;;;;;;;;4993951;28;20050;-68
2022/04/20 09:38:05;;;;;;;6.38;3.17;;;;;;;;;;5003157;28;20057;-68
2022/04/20 09:40:37;;;;;;;4.30;2.63;;;;;;;;;;4992486;28;20058;-70
2022/04/20 09:43:09;;;;;;;3.78;2.55;;;;;;;;;;5000779;28;20046;-69
2022/04/20 09:45:38;;;;;;;3.20;2.25;;;;;;;;;;4983802;28;20053;-68
2022/04/20 09:51:20;;;;;;;2.70;2.25;;;;;;;;;;5002520;28;20096;-68
2022/04/20 09:53:52;;;;;;;2.95;2.15;;;;;;;;;;5002633;28;20054;-68
2022/04/20 09:56:24;;;;;;;2.33;1.63;;;;;;;;;;5004131;28;20103;-69
2022/04/20 09:59:02;;;;;;;3.33;1.92;;;;;;;;;;4999228;28;20061;-68
2022/04/20 10:01:34;;;;;;;2.55;2.30;;;;;;;;;;5001626;28;20061;-69
2022/04/20 10:04:06;;;;;;;4.30;2.33;;;;;;;;;;4999374;28;20097;-68
2022/04/20 10:06:34;;;;;;;4.90;2.45;;;;;;;;;;4999032;28;20108;-69
2022/04/20 10:09:00;;;;;;;2.63;2.22;;;;;;;;;;4983516;28;20050;-69
2022/04/20 10:11:27;;;;;;;2.95;2.10;;;;;;;;;;4982334;28;20575;-69
2022/04/20 10:17:00;;;;;;;1.80;1.70;;;;;;;;;;4965360;28;20050;-69
2022/04/20 10:19:28;;;;;;;2.70;1.80;;;;;;;;;;4990270;28;20464;-69
2022/04/20 10:21:55;;;;;;;4.40;1.88;;;;;;;;;;5001408;28;20050;-68
2022/04/20 10:24:29;;;;;;;3.78;1.90;;;;;;;;;;4998242;28;20133;-69
2022/04/20 10:26:59;;;;;;;3.13;1.83;;;;;;;;;;5001605;28;20050;-68
2022/04/20 10:29:31;;;;;;;1.60;1.50;;;;;;;;;;4994425;28;20105;-69
2022/04/20 10:32:06;;;;;;;2.85;1.90;;;;;;;;;;4982867;28;20105;-69
2022/04/20 10:34:33;;;;;;;3.63;1.92;;;;;;;;;;5001343;28;20108;-69
2022/04/20 10:37:04;;;;;;;3.90;2.08;;;;;;;;;;4983471;28;20093;-69
2022/04/20 10:39:36;;;;;;;2.03;1.88;;;;;;;;;;4999324;28;20046;-69
2022/04/20 10:42:10;;;;;;;1.98;1.70;;;;;;;;;;5000103;28;20448;-70
2022/04/20 10:44:55;;;;;;;3.15;1.70;;;;;;;;;;4999421;28;20405;-69
2022/04/20 10:47:27;;;;;;;2.72;2.13;;;;;;;;;;4999065;28;20445;-70
2022/04/20 10:50:09;;;;;;;2.50;2.30;;;;;;;;;;5000950;28;20133;-69
2022/04/20 10:52:36;;;;;;;3.42;1.90;;;;;;;;;;5000126;28;20046;-69
2022/04/20 10:55:09;;;;;;;3.60;2.05;;;;;;;;;;4998804;28;20054;-70
2022/04/20 10:57:37;;;;;;;3.40;1.75;;;;;;;;;;4985399;28;20049;-70
2022/04/20 11:00:24;;;;;;;3.55;2.03;;;;;;;;;;4998320;28;20058;-70
2022/04/20 11:02:55;;;;;;;3.53;2.25;;;;;;;;;;4998900;28;20053;-69
2022/04/20 11:05:23;;;;;;;2.72;2.08;;;;;;;;;;4999380;28;20060;-70
2022/04/20 11:08:03;;;;;;;1.85;1.70;;;;;;;;;;4981155;28;20509;-70
2022/04/20 11:10:30;;;;;;;2.67;2.25;;;;;;;;;;4998233;28;20112;-70
2022/04/20 11:19:07;;;;;;;2.17;1.77;;;;;;;;;;4985402;28;20087;-66
2022/04/20 11:21:34;;;;;;;3.75;2.03;;;;;;;;;;4983357;23;20053;-66
2022/04/20 11:24:08;;;;;;;2.42;2.05;;;;;;;;;;4980113;28;20087;-65
2022/04/20 11:26:35;;;;;;;3.55;1.88;;;;;;;;;;4979033;28;20050;-64
2022/04/20 11:29:23;;;;;;;3.38;2.17;;;;;;;;;;4978791;28;20046;-63
2022/04/20 11:31:57;;;;;;;3.83;2.30;;;;;;;;;;4978431;28;20054;-67
2022/04/20 11:34:26;;;;;;;2.58;2.05;;;;;;;;;;4979437;28;20057;-65
2022/04/20 11:36:55;;;;;;;2.30;2.00;;;;;;;;;;4976556;28;20062;-68
2022/04/20 11:39:24;;;;;;;2.10;1.90;;;;;;;;;;4976816;28;20058;-66
2022/04/20 11:41:53;;;;;;;2.42;2.08;;;;;;;;;;4977931;28;20046;-66
2022/04/20 11:44:33;;;;;;;3.15;1.90;;;;;;;;;;4974915;28;20402;-66
2022/04/20 11:47:07;;;;;;;3.83;2.13;;;;;;;;;;4977911;28;20457;-66
2022/04/20 11:49:36;;;;;;;3.47;1.98;;;;;;;;;;4977096;28;20054;-66
2022/04/20 11:52:06;;;;;;;2.30;2.10;;;;;;;;;;4975916;28;20428;-67
2022/04/20 11:54:34;;;;;;;2.40;2.13;;;;;;;;;;4978333;28;20047;-67
2022/04/20 11:57:01;;;;;;;1.92;1.70;;;;;;;;;;4976366;28;20059;-66
2022/04/20 11:59:29;;;;;;;2.25;2.00;;;;;;;;;;4992861;28;20132;-66
2022/04/20 12:01:56;;;;;;;2.58;1.70;;;;;;;;;;4975496;28;20113;-67
2022/04/20 12:04:27;;;;;;;7.05;2.55;;;;;;;;;;4978186;28;20133;-65
2022/04/20 12:06:56;;;;;;;3.30;2.33;;;;;;;;;;4976971;28;20061;-66
2022/04/20 12:09:24;;;;;;;7.20;2.50;;;;;;;;;;4976603;28;20505;-66
2022/04/20 12:11:52;;;;;;;3.72;2.00;;;;;;;;;;4976997;28;20059;-65
2022/04/20 12:14:19;;;;;;;1.83;1.73;;;;;;;;;;4975508;28;20049;-67
2022/04/20 12:16:47;;;;;;;4.22;2.08;;;;;;;;;;4978158;28;20055;-66
2022/04/20 12:19:13;;;;;;;4.50;2.63;;;;;;;;;;4977340;28;20043;-68
2022/04/20 12:21:46;;;;;;;2.45;2.25;;;;;;;;;;4980257;28;20074;-66
2022/04/20 12:24:25;;;;;;;2.83;2.03;;;;;;;;;;4980222;28;20050;-67
2022/04/20 12:26:53;;;;;;;3.25;2.20;;;;;;;;;;4979236;28;20051;-68
2022/04/20 12:29:21;;;;;;;2.50;2.30;;;;;;;;;;4983210;28;20101;-66
2022/04/20 12:31:50;;;;;;;2.25;2.03;;;;;;;;;;4979910;28;20074;-66
2022/04/20 12:34:19;;;;;;;3.28;2.30;;;;;;;;;;4981000;28;20089;-67
2022/04/20 12:36:57;;;;;;;4.05;2.00;;;;;;;;;;4979831;28;20105;-65
2022/04/20 12:39:27;;;;;;;1.92;1.83;;;;;;;;;;4982320;28;20502;-66
2022/04/20 12:41:57;;;;;;;3.40;1.55;;;;;;;;;;4982618;28;20055;-69
2022/04/20 12:44:46;;;;;;;1.88;1.77;;;;;;;;;;4979580;28;20055;-67
2022/04/20 12:47:16;;;;;;;2.63;2.05;;;;;;;;;;4975042;28;20440;-67
2022/04/20 12:49:45;;;;;;;5.40;1.88;;;;;;;;;;4980338;28;20054;-69
2022/04/20 12:52:16;;;;;;;1.88;1.50;;;;;;;;;;4979089;28;20047;-68
2022/04/20 12:54:53;;;;;;;3.92;1.75;;;;;;;;;;4981311;28;20403;-69
2022/04/20 13:03:04;;;;;;;2.40;1.60;;;;;;;;;;4977289;28;20075;-68
2022/04/20 13:05:32;;;;;;;2.63;1.50;;;;;;;;;;4977940;28;20046;-67
2022/04/20 13:07:59;;;;;;;2.22;1.90;;;;;;;;;;4980507;28;20051;-69
2022/04/20 13:10:26;;;;;;;5.15;1.95;;;;;;;;;;4980037;28;20047;-67
2022/04/20 13:12:54;;;;;;;2.33;1.85;;;;;;;;;;4985406;28;20046;-68
2022/04/20 13:15:21;;;;;;;1.75;1.65;;;;;;;;;;4975727;28;20051;-67
2022/04/20 13:17:48;;;;;;;1.40;1.30;;;;;;;;;;4982362;28;20047;-67
2022/04/20 13:20:18;;;;;;;1.85;1.70;;;;;;;;;;4983235;28;20054;-68
2022/04/20 13:22:45;;;;;;;2.72;1.95;;;;;;;;;;4969586;28;20047;-67
2022/04/20 13:27:57;;;;;;;1.58;1.48;;;;;;;;;;4978203;28;20050;-67
2022/04/20 13:30:25;;;;;;;1.50;1.40;;;;;;;;;;4982392;28;20051;-67
2022/04/20 13:32:52;;;;;;;2.00;1.50;;;;;;;;;;4980426;28;20129;-67
2022/04/20 13:35:19;;;;;;;4.13;1.65;;;;;;;;;;4983074;28;20125;-67
2022/04/20 13:37:46;;;;;;;2.70;1.63;;;;;;;;;;4980279;28;20069;-67
2022/04/20 13:40:13;;;;;;;2.90;1.88;;;;;;;;;;4980362;28;20061;-67
2022/04/20 13:42:40;;;;;;;2.05;1.65;;;;;;;;;;4998580;28;20387;-67
2022/04/20 13:45:07;;;;;;;2.28;1.80;;;;;;;;;;4980065;28;20049;-67
2022/04/20 13:47:33;;;;;;;4.95;1.65;;;;;;;;;;4980640;28;20049;-68
2022/04/20 13:50:01;;;;;;;1.80;1.40;;;;;;;;;;4979694;28;20102;-68
2022/04/20 13:52:28;;;;;;;1.75;1.65;;;;;;;;;;4984310;28;20062;-68
2022/04/20 13:54:55;;;;;;;2.95;1.70;;;;;;;;;;4975764;28;20469;-67
2022/04/20 13:57:22;;;;;;;2.80;2.00;;;;;;;;;;4984237;28;20055;-68
2022/04/20 13:59:49;;;;;;;4.03;1.67;;;;;;;;;;4983820;28;20046;-67
2022/04/20 14:02:15;;;;;;;2.90;1.67;;;;;;;;;;4981135;28;20047;-67
2022/04/20 14:04:42;;;;;;;4.88;1.60;;;;;;;;;;4979757;28;20047;-67
2022/04/20 14:07:09;;;;;;;1.95;1.63;;;;;;;;;;4981824;28;20078;-67
2022/04/20 14:09:36;;;;;;;4.32;2.22;;;;;;;;;;4980320;28;20473;-67
2022/04/20 14:12:03;;;;;;;2.78;2.15;;;;;;;;;;4980254;28;20050;-67
2022/04/20 14:14:30;;;;;;;3.85;2.17;;;;;;;;;;4980591;28;20138;-67
2022/04/20 14:16:57;;;;;;;2.22;1.90;;;;;;;;;;4981374;28;20445;-67
2022/04/20 14:19:24;;;;;;;2.33;2.08;;;;;;;;;;4981060;28;20047;-67
2022/04/20 14:21:57;;;;;;;3.25;2.30;;;;;;;;;;4979685;28;20055;-67
2022/04/20 14:24:24;;;;;;;3.35;2.42;;;;;;;;;;4982455;28;20050;-67
2022/04/20 14:32:09;;;;;;;11.35;7.03;;;;;;;;;;4980879;28;20059;-67
2022/04/20 14:32:39;;;;;;;4.15;2.00;;;;;;;;;;4975796;28;20051;-68
2022/04/20 14:35:06;;;;;;;2.63;1.63;;;;;;;;;;4982810;28;20053;-67
2022/04/20 14:37:34;;;;;;;1.58;1.45;;;;;;;;;;4982334;28;20054;-68
2022/04/20 14:40:02;;;;;;;3.60;1.48;;;;;;;;;;4981100;28;20046;-68
2022/04/20 14:42:29;;;;;;;2.83;1.92;;;;;;;;;;4973558;28;20477;-67
2022/04/20 14:45:03;;;;;;;2.10;1.93;;;;;;;;;;4973254;28;20129;-67
2022/04/20 14:47:30;;;;;;;2.97;2.17;;;;;;;;;;4969761;28;20369;-68
2022/04/20 14:49:56;;;;;;;2.85;1.95;;;;;;;;;;4973769;28;20454;-68
2022/04/20 14:52:24;;;;;;;3.13;1.80;;;;;;;;;;4973845;28;20409;-67
2022/04/20 14:54:51;;;;;;;2.35;2.03;;;;;;;;;;4973041;28;20059;-68
2022/04/20 14:57:37;;;;;;;3.22;1.95;;;;;;;;;;4974074;28;20399;-68
2022/04/20 15:00:05;;;;;;;3.88;2.25;;;;;;;;;;4974104;28;20086;-68
2022/04/20 15:02:35;;;;;;;5.47;2.35;;;;;;;;;;4973960;28;20050;-68
2022/04/20 15:05:02;;;;;;;3.90;2.10;;;;;;;;;;4973823;28;20121;-68
2022/04/20 15:07:29;;;;;;;2.00;1.67;;;;;;;;;;4973806;28;20051;-67
2022/04/20 15:09:56;;;;;;;3.05;2.63;;;;;;;;;;4974031;28;20142;-67
2022/04/20 15:12:24;;;;;;;3.03;2.15;;;;;;;;;;4976037;28;20082;-67
2022/04/20 15:14:51;;;;;;;3.33;2.30;;;;;;;;;;4992139;28;20062;-68
2022/04/20 15:17:19;;;;;;;2.63;2.35;;;;;;;;;;4977608;28;20050;-68
2022/04/20 15:19:46;;;;;;;2.60;2.40;;;;;;;;;;4976388;28;20054;-68
2022/04/20 15:22:12;;;;;;;3.55;2.22;;;;;;;;;;4974343;28;20051;-72
2022/04/20 15:24:41;;;;;;;6.10;3.40;;;;;;;;;;4974505;28;20512;-67
2022/04/20 15:27:08;;;;;;;6.80;2.85;;;;;;;;;;4975145;28;20058;-67
2022/04/20 15:29:36;;;;;;;2.72;2.53;;;;;;;;;;4973545;28;20047;-67
2022/04/20 15:32:03;;;;;;;6.18;2.63;;;;;;;;;;4973499;28;20051;-67
2022/04/20 15:34:29;;;;;;;3.33;2.55;;;;;;;;;;4973382;28;20046;-67
2022/04/20 15:36:57;;;;;;;2.67;2.47;;;;;;;;;;4973176;28;20501;-67
2022/04/20 15:39:23;;;;;;;2.53;2.33;;;;;;;;;;4973377;28;20050;-67
2022/04/20 15:42:10;;;;;;;4.85;2.80;;;;;;;;;;4973187;28;20054;-67